sensor_id;sensor_type;location;lat;lon;timestamp;pressure;altitude;pressure_sealevel;temperature;humidity
54806;BME280;62866;55.776;37.496;2023-03-18T00:01:32;101497.97;;;-1.54;50.49
54806;BME280;62866;55.776;37.496;2023-03-18T00:03:59;101506.69;;;-1.53;50.24
54806;BME280;62866;55.776;37.496;2023-03-18T00:06:25;101500.59;;;-1.54;50.33
54806;BME280;62866;55.776;37.496;2023-03-18T00:08:51;101499.78;;;-1.56;50.35
54806;BME280;62866;55.776;37.496;2023-03-18T00:11:19;101502.63;;;-1.60;50.60
54806;BME280;62866;55.776;37.496;2023-03-18T00:13:46;101499.41;;;-1.67;50.97
54806;BME280;62866;55.776;37.496;2023-03-18T00:16:12;101501.00;;;-1.63;51.17
54806;BME280;62866;55.776;37.496;2023-03-18T00:18:38;101491.72;;;-1.70;50.90
54806;BME280;62866;55.776;37.496;2023-03-18T00:21:05;101509.84;;;-1.65;50.64
54806;BME280;62866;55.776;37.496;2023-03-18T00:23:32;101505.38;;;-1.63;50.67
54806;BME280;62866;55.776;37.496;2023-03-18T00:25:58;101508.88;;;-1.63;50.56
54806;BME280;62866;55.776;37.496;2023-03-18T00:28:28;101502.19;;;-1.70;50.71
54806;BME280;62866;55.776;37.496;2023-03-18T00:31:02;101499.56;;;-1.70;51.12
54806;BME280;62866;55.776;37.496;2023-03-18T00:33:28;101513.59;;;-1.71;50.85
54806;BME280;62866;55.776;37.496;2023-03-18T00:35:54;101510.25;;;-1.74;51.31
54806;BME280;62866;55.776;37.496;2023-03-18T00:38:20;101504.38;;;-1.79;51.00
54806;BME280;62866;55.776;37.496;2023-03-18T00:40:50;101521.66;;;-1.75;51.48
54806;BME280;62866;55.776;37.496;2023-03-18T00:43:26;101514.63;;;-1.75;51.64
54806;BME280;62866;55.776;37.496;2023-03-18T00:45:55;101507.72;;;-1.76;51.12
54806;BME280;62866;55.776;37.496;2023-03-18T00:48:22;101516.56;;;-1.78;51.60
54806;BME280;62866;55.776;37.496;2023-03-18T00:50:48;101517.47;;;-1.79;51.76
54806;BME280;62866;55.776;37.496;2023-03-18T00:53:15;101517.59;;;-1.82;52.23
54806;BME280;62866;55.776;37.496;2023-03-18T00:55:41;101514.84;;;-1.79;51.78
54806;BME280;62866;55.776;37.496;2023-03-18T00:58:08;101500.44;;;-1.89;51.93
54806;BME280;62866;55.776;37.496;2023-03-18T01:00:35;101525.28;;;-1.78;52.30
54806;BME280;62866;55.776;37.496;2023-03-18T01:03:01;101512.41;;;-1.84;52.14
54806;BME280;62866;55.776;37.496;2023-03-18T01:05:26;101512.38;;;-1.82;52.06
54806;BME280;62866;55.776;37.496;2023-03-18T01:07:52;101527.13;;;-1.80;51.71
54806;BME280;62866;55.776;37.496;2023-03-18T01:10:18;101521.94;;;-1.81;52.48
54806;BME280;62866;55.776;37.496;2023-03-18T01:12:44;101530.00;;;-1.86;51.99
54806;BME280;62866;55.776;37.496;2023-03-18T01:15:16;101515.47;;;-1.93;52.50
54806;BME280;62866;55.776;37.496;2023-03-18T01:17:43;101532.06;;;-1.93;52.24
54806;BME280;62866;55.776;37.496;2023-03-18T01:20:11;101524.19;;;-1.93;52.86
54806;BME280;62866;55.776;37.496;2023-03-18T01:22:37;101526.72;;;-1.91;52.55
54806;BME280;62866;55.776;37.496;2023-03-18T01:25:06;101536.44;;;-1.93;52.79
54806;BME280;62866;55.776;37.496;2023-03-18T01:27:33;101522.81;;;-2.01;53.07
54806;BME280;62866;55.776;37.496;2023-03-18T01:29:59;101541.75;;;-1.95;52.86
54806;BME280;62866;55.776;37.496;2023-03-18T01:32:24;101552.41;;;-1.99;52.91
54806;BME280;62866;55.776;37.496;2023-03-18T01:34:51;101549.69;;;-1.96;53.44
54806;BME280;62866;55.776;37.496;2023-03-18T01:37:16;101549.72;;;-1.98;53.59
54806;BME280;62866;55.776;37.496;2023-03-18T01:39:44;101545.69;;;-2.05;53.02
54806;BME280;62866;55.776;37.496;2023-03-18T01:42:10;101549.09;;;-2.03;53.30
54806;BME280;62866;55.776;37.496;2023-03-18T01:44:36;101556.03;;;-2.02;53.84
54806;BME280;62866;55.776;37.496;2023-03-18T01:47:02;101559.56;;;-2.03;53.80
54806;BME280;62866;55.776;37.496;2023-03-18T01:49:41;101562.38;;;-2.07;53.19
54806;BME280;62866;55.776;37.496;2023-03-18T01:52:29;101564.94;;;-2.06;53.82
54806;BME280;62866;55.776;37.496;2023-03-18T01:55:03;101565.91;;;-2.08;53.64
54806;BME280;62866;55.776;37.496;2023-03-18T01:57:31;101567.81;;;-2.12;53.80
54806;BME280;62866;55.776;37.496;2023-03-18T01:59:58;101566.19;;;-2.14;53.73
54806;BME280;62866;55.776;37.496;2023-03-18T02:02:25;101580.13;;;-2.14;54.08
54806;BME280;62866;55.776;37.496;2023-03-18T02:04:54;101571.47;;;-2.16;53.89
54806;BME280;62866;55.776;37.496;2023-03-18T02:07:26;101574.31;;;-2.20;53.98
54806;BME280;62866;55.776;37.496;2023-03-18T02:09:53;101580.34;;;-2.18;54.22
54806;BME280;62866;55.776;37.496;2023-03-18T02:12:26;101583.00;;;-2.20;54.25
54806;BME280;62866;55.776;37.496;2023-03-18T02:14:54;101591.00;;;-2.23;54.11
54806;BME280;62866;55.776;37.496;2023-03-18T02:17:23;101586.72;;;-2.25;53.71
54806;BME280;62866;55.776;37.496;2023-03-18T02:20:07;101588.38;;;-2.23;54.20
54806;BME280;62866;55.776;37.496;2023-03-18T02:23:24;101599.91;;;-2.27;54.51
54806;BME280;62866;55.776;37.496;2023-03-18T02:26:07;101598.31;;;-2.31;54.41
54806;BME280;62866;55.776;37.496;2023-03-18T02:28:35;101606.28;;;-2.34;54.25
54806;BME280;62866;55.776;37.496;2023-03-18T02:31:04;101602.09;;;-2.38;54.49
54806;BME280;62866;55.776;37.496;2023-03-18T02:33:35;101602.94;;;-2.38;54.64
54806;BME280;62866;55.776;37.496;2023-03-18T02:36:06;101608.25;;;-2.39;54.41
54806;BME280;62866;55.776;37.496;2023-03-18T02:38:34;101610.94;;;-2.41;54.76
54806;BME280;62866;55.776;37.496;2023-03-18T02:41:00;101603.22;;;-2.44;54.75
54806;BME280;62866;55.776;37.496;2023-03-18T02:43:28;101606.75;;;-2.45;54.75
54806;BME280;62866;55.776;37.496;2023-03-18T02:48:47;101619.88;;;-2.46;55.08
54806;BME280;62866;55.776;37.496;2023-03-18T02:51:15;101620.75;;;-2.46;55.29
54806;BME280;62866;55.776;37.496;2023-03-18T02:53:42;101619.03;;;-2.47;55.31
54806;BME280;62866;55.776;37.496;2023-03-18T02:56:08;101623.25;;;-2.43;55.12
54806;BME280;62866;55.776;37.496;2023-03-18T02:58:35;101630.41;;;-2.48;55.20
54806;BME280;62866;55.776;37.496;2023-03-18T03:01:05;101626.28;;;-2.53;55.41
54806;BME280;62866;55.776;37.496;2023-03-18T03:03:33;101636.75;;;-2.53;54.96
54806;BME280;62866;55.776;37.496;2023-03-18T03:05:59;101633.34;;;-2.55;55.86
54806;BME280;62866;55.776;37.496;2023-03-18T03:08:25;101636.94;;;-2.58;55.39
54806;BME280;62866;55.776;37.496;2023-03-18T03:10:51;101630.13;;;-2.62;55.39
54806;BME280;62866;55.776;37.496;2023-03-18T03:13:18;101643.22;;;-2.62;55.78
54806;BME280;62866;55.776;37.496;2023-03-18T03:15:44;101639.84;;;-2.65;55.55
54806;BME280;62866;55.776;37.496;2023-03-18T03:18:09;101641.59;;;-2.66;55.71
54806;BME280;62866;55.776;37.496;2023-03-18T03:20:36;101635.59;;;-2.68;55.69
54806;BME280;62866;55.776;37.496;2023-03-18T03:23:06;101640.03;;;-2.70;55.65
54806;BME280;62866;55.776;37.496;2023-03-18T03:25:33;101644.28;;;-2.68;56.09
54806;BME280;62866;55.776;37.496;2023-03-18T03:27:59;101629.66;;;-2.73;55.97
54806;BME280;62866;55.776;37.496;2023-03-18T03:30:25;101646.84;;;-2.66;55.90
54806;BME280;62866;55.776;37.496;2023-03-18T03:32:51;101645.13;;;-2.67;55.31
54806;BME280;62866;55.776;37.496;2023-03-18T03:35:18;101642.47;;;-2.65;56.19
54806;BME280;62866;55.776;37.496;2023-03-18T03:37:44;101639.97;;;-2.69;55.61
54806;BME280;62866;55.776;37.496;2023-03-18T03:40:12;101644.28;;;-2.68;55.61
54806;BME280;62866;55.776;37.496;2023-03-18T03:42:39;101652.22;;;-2.69;55.48
54806;BME280;62866;55.776;37.496;2023-03-18T03:45:05;101640.03;;;-2.70;55.94
54806;BME280;62866;55.776;37.496;2023-03-18T03:47:32;101636.38;;;-2.66;56.35
54806;BME280;62866;55.776;37.496;2023-03-18T03:49:58;101636.56;;;-2.71;55.90
54806;BME280;62866;55.776;37.496;2023-03-18T03:52:24;101624.63;;;-2.78;55.93
54806;BME280;62866;55.776;37.496;2023-03-18T03:54:50;101652.84;;;-2.62;56.01
54806;BME280;62866;55.776;37.496;2023-03-18T03:57:16;101655.34;;;-2.59;56.03
54806;BME280;62866;55.776;37.496;2023-03-18T03:59:42;101655.25;;;-2.58;55.81
54806;BME280;62866;55.776;37.496;2023-03-18T04:02:08;101650.88;;;-2.57;56.10
54806;BME280;62866;55.776;37.496;2023-03-18T04:04:34;101653.38;;;-2.54;56.21
54806;BME280;62866;55.776;37.496;2023-03-18T04:07:00;101653.34;;;-2.53;56.06
54806;BME280;62866;55.776;37.496;2023-03-18T04:09:27;101648.25;;;-2.57;56.15
54806;BME280;62866;55.776;37.496;2023-03-18T04:11:53;101661.00;;;-2.48;55.71
54806;BME280;62866;55.776;37.496;2023-03-18T04:14:19;101658.25;;;-2.45;56.06
54806;BME280;62866;55.776;37.496;2023-03-18T04:16:45;101664.16;;;-2.40;56.56
54806;BME280;62866;55.776;37.496;2023-03-18T04:19:10;101661.50;;;-2.39;56.50
54806;BME280;62866;55.776;37.496;2023-03-18T04:21:36;101666.53;;;-2.34;56.28
54806;BME280;62866;55.776;37.496;2023-03-18T04:24:02;101669.91;;;-2.31;55.73
54806;BME280;62866;55.776;37.496;2023-03-18T04:26:28;101657.09;;;-2.38;56.50
54806;BME280;62866;55.776;37.496;2023-03-18T04:28:56;101663.00;;;-2.33;56.01
54806;BME280;62866;55.776;37.496;2023-03-18T04:31:21;101674.03;;;-2.25;56.05
54806;BME280;62866;55.776;37.496;2023-03-18T04:33:47;101673.91;;;-2.22;56.00
54806;BME280;62866;55.776;37.496;2023-03-18T04:36:13;101676.34;;;-2.17;56.65
54806;BME280;62866;55.776;37.496;2023-03-18T04:38:38;101677.09;;;-2.14;56.43
54806;BME280;62866;55.776;37.496;2023-03-18T04:41:04;101671.84;;;-2.14;56.63
54806;BME280;62866;55.776;37.496;2023-03-18T04:43:31;101680.34;;;-2.09;56.71
54806;BME280;62866;55.776;37.496;2023-03-18T04:45:56;101682.75;;;-2.03;56.27
54806;BME280;62866;55.776;37.496;2023-03-18T04:48:22;101691.28;;;-1.98;56.75
54806;BME280;62866;55.776;37.496;2023-03-18T04:50:48;101662.97;;;-2.10;56.39
54806;BME280;62866;55.776;37.496;2023-03-18T04:53:13;101683.16;;;-1.92;56.47
54806;BME280;62866;55.776;37.496;2023-03-18T04:55:40;101681.91;;;-1.83;56.87
54806;BME280;62866;55.776;37.496;2023-03-18T04:58:05;101694.72;;;-1.75;56.91
54806;BME280;62866;55.776;37.496;2023-03-18T05:00:31;101685.81;;;-1.71;57.03
54806;BME280;62866;55.776;37.496;2023-03-18T05:02:57;101691.84;;;-1.69;56.53
54806;BME280;62866;55.776;37.496;2023-03-18T05:05:22;101678.97;;;-1.75;56.22
54806;BME280;62866;55.776;37.496;2023-03-18T05:07:48;101690.94;;;-1.68;56.75
54806;BME280;62866;55.776;37.496;2023-03-18T05:10:14;101685.53;;;-1.65;56.47
54806;BME280;62866;55.776;37.496;2023-03-18T05:12:40;101712.13;;;-1.52;56.52
54806;BME280;62866;55.776;37.496;2023-03-18T05:15:06;101703.06;;;-1.45;56.00
54806;BME280;62866;55.776;37.496;2023-03-18T05:17:32;101696.00;;;-1.43;55.88
54806;BME280;62866;55.776;37.496;2023-03-18T05:19:58;101703.00;;;-1.44;56.11
54806;BME280;62866;55.776;37.496;2023-03-18T05:22:24;101705.31;;;-1.36;56.52
54806;BME280;62866;55.776;37.496;2023-03-18T05:24:49;101701.28;;;-1.25;55.70
54806;BME280;62866;55.776;37.496;2023-03-18T05:27:16;101676.44;;;-1.36;55.83
54806;BME280;62866;55.776;37.496;2023-03-18T05:29:43;101700.75;;;-1.12;55.83
54806;BME280;62866;55.776;37.496;2023-03-18T05:32:10;101705.38;;;-0.99;55.23
54806;BME280;62866;55.776;37.496;2023-03-18T05:34:37;101701.50;;;-0.90;55.33
54806;BME280;62866;55.776;37.496;2023-03-18T05:37:04;101707.88;;;-0.75;54.78
54806;BME280;62866;55.776;37.496;2023-03-18T05:39:31;101696.44;;;1.18;52.30
54806;BME280;62866;55.776;37.496;2023-03-18T05:41:58;101700.25;;;3.39;48.73
54806;BME280;62866;55.776;37.496;2023-03-18T05:44:24;101687.59;;;5.89;44.78
54806;BME280;62866;55.776;37.496;2023-03-18T05:46:50;101689.66;;;9.06;38.72
54806;BME280;62866;55.776;37.496;2023-03-18T05:49:20;101683.81;;;10.02;33.83
54806;BME280;62866;55.776;37.496;2023-03-18T05:51:46;101694.78;;;10.08;38.02
54806;BME280;62866;55.776;37.496;2023-03-18T05:54:12;101688.38;;;11.06;33.70
54806;BME280;62866;55.776;37.496;2023-03-18T05:56:38;101686.50;;;12.07;30.47
54806;BME280;62866;55.776;37.496;2023-03-18T05:59:04;101694.75;;;12.67;30.34
54806;BME280;62866;55.776;37.496;2023-03-18T06:01:31;101699.31;;;11.96;30.82
54806;BME280;62866;55.776;37.496;2023-03-18T06:03:57;101703.88;;;11.86;29.10
54806;BME280;62866;55.776;37.496;2023-03-18T06:06:24;101707.09;;;12.07;28.71
54806;BME280;62866;55.776;37.496;2023-03-18T06:08:50;101707.44;;;12.22;28.37
54806;BME280;62866;55.776;37.496;2023-03-18T06:11:16;101708.00;;;11.98;28.58
54806;BME280;62866;55.776;37.496;2023-03-18T06:13:42;101712.03;;;12.11;29.13
54806;BME280;62866;55.776;37.496;2023-03-18T06:16:09;101717.63;;;10.70;29.57
54806;BME280;62866;55.776;37.496;2023-03-18T06:18:36;101714.47;;;8.97;31.25
54806;BME280;62866;55.776;37.496;2023-03-18T06:21:03;101719.34;;;9.43;32.14
54806;BME280;62866;55.776;37.496;2023-03-18T06:23:28;101715.38;;;10.17;30.09
54806;BME280;62866;55.776;37.496;2023-03-18T06:25:54;101720.16;;;9.74;30.57
54806;BME280;62866;55.776;37.496;2023-03-18T06:28:20;101720.88;;;8.32;31.80
54806;BME280;62866;55.776;37.496;2023-03-18T06:30:46;101720.88;;;7.11;33.49
54806;BME280;62866;55.776;37.496;2023-03-18T06:33:11;101722.28;;;5.86;36.05
54806;BME280;62866;55.776;37.496;2023-03-18T06:35:37;101728.91;;;6.17;35.79
54806;BME280;62866;55.776;37.496;2023-03-18T06:38:03;101714.13;;;8.49;33.69
54806;BME280;62866;55.776;37.496;2023-03-18T06:40:29;101718.66;;;11.16;30.10
54806;BME280;62866;55.776;37.496;2023-03-18T06:42:55;101710.88;;;12.32;27.53
54806;BME280;62866;55.776;37.496;2023-03-18T06:45:20;101714.97;;;12.53;27.99
54806;BME280;62866;55.776;37.496;2023-03-18T06:47:47;101724.81;;;10.60;29.00
54806;BME280;62866;55.776;37.496;2023-03-18T06:50:14;101730.84;;;8.71;30.89
54806;BME280;62866;55.776;37.496;2023-03-18T06:52:39;101713.78;;;7.99;32.01
54806;BME280;62866;55.776;37.496;2023-03-18T06:55:05;101726.25;;;8.53;32.24
54806;BME280;62866;55.776;37.496;2023-03-18T06:57:31;101735.13;;;10.05;31.22
54806;BME280;62866;55.776;37.496;2023-03-18T06:59:58;101720.16;;;11.74;29.29
54806;BME280;62866;55.776;37.496;2023-03-18T07:02:24;101729.28;;;12.80;27.17
54806;BME280;62866;55.776;37.496;2023-03-18T07:04:51;101729.34;;;13.74;27.15
54806;BME280;62866;55.776;37.496;2023-03-18T07:07:17;101726.38;;;14.43;25.12
54806;BME280;62866;55.776;37.496;2023-03-18T07:09:43;101728.91;;;14.93;24.51
54806;BME280;62866;55.776;37.496;2023-03-18T07:12:11;101704.25;;;15.29;24.11
54806;BME280;62866;55.776;37.496;2023-03-18T07:14:41;101728.25;;;16.02;23.61
54806;BME280;62866;55.776;37.496;2023-03-18T07:17:08;101725.25;;;17.11;23.72
54806;BME280;62866;55.776;37.496;2023-03-18T07:19:34;101733.41;;;17.55;21.93
54806;BME280;62866;55.776;37.496;2023-03-18T07:22:00;101727.19;;;18.19;22.05
54806;BME280;62866;55.776;37.496;2023-03-18T07:24:26;101721.22;;;18.88;21.95
54806;BME280;62866;55.776;37.496;2023-03-18T07:26:52;101724.97;;;19.15;20.64
54806;BME280;62866;55.776;37.496;2023-03-18T07:29:19;101726.25;;;18.91;20.89
54806;BME280;62866;55.776;37.496;2023-03-18T07:31:45;101719.88;;;17.99;20.32
54806;BME280;62866;55.776;37.496;2023-03-18T07:34:12;101720.81;;;17.47;20.21
54806;BME280;62866;55.776;37.496;2023-03-18T07:36:39;101726.16;;;16.88;20.48
54806;BME280;62866;55.776;37.496;2023-03-18T07:39:06;101724.22;;;16.28;20.77
54806;BME280;62866;55.776;37.496;2023-03-18T07:41:32;101722.75;;;15.95;22.08
54806;BME280;62866;55.776;37.496;2023-03-18T07:43:58;101728.31;;;15.93;21.45
54806;BME280;62866;55.776;37.496;2023-03-18T07:46:23;101712.94;;;16.25;19.73
54806;BME280;62866;55.776;37.496;2023-03-18T07:48:50;101705.22;;;16.67;20.33
54806;BME280;62866;55.776;37.496;2023-03-18T07:51:16;101722.97;;;16.85;20.56
54806;BME280;62866;55.776;37.496;2023-03-18T07:53:42;101722.09;;;16.47;20.17
54806;BME280;62866;55.776;37.496;2023-03-18T07:56:08;101718.16;;;16.26;19.58
54806;BME280;62866;55.776;37.496;2023-03-18T07:58:37;101724.38;;;15.65;20.47
54806;BME280;62866;55.776;37.496;2023-03-18T08:01:03;101723.31;;;16.13;20.37
54806;BME280;62866;55.776;37.496;2023-03-18T08:03:29;101715.09;;;16.52;18.63
54806;BME280;62866;55.776;37.496;2023-03-18T08:05:55;101718.22;;;16.41;18.37
54806;BME280;62866;55.776;37.496;2023-03-18T08:08:21;101719.19;;;16.25;18.44
54806;BME280;62866;55.776;37.496;2023-03-18T08:10:47;101711.63;;;16.21;18.62
54806;BME280;62866;55.776;37.496;2023-03-18T08:13:13;101723.16;;;16.15;18.69
54806;BME280;62866;55.776;37.496;2023-03-18T08:15:39;101711.06;;;16.03;17.80
54806;BME280;62866;55.776;37.496;2023-03-18T08:18:05;101724.06;;;15.99;17.89
54806;BME280;62866;55.776;37.496;2023-03-18T08:20:30;101722.00;;;16.63;18.26
54806;BME280;62866;55.776;37.496;2023-03-18T08:22:56;101722.03;;;17.15;17.52
54806;BME280;62866;55.776;37.496;2023-03-18T08:25:22;101720.31;;;16.62;18.21
54806;BME280;62866;55.776;37.496;2023-03-18T08:27:49;101714.94;;;16.31;18.33
54806;BME280;62866;55.776;37.496;2023-03-18T08:30:16;101718.88;;;16.20;18.84
54806;BME280;62866;55.776;37.496;2023-03-18T08:32:42;101715.63;;;16.25;18.50
54806;BME280;62866;55.776;37.496;2023-03-18T08:35:09;101717.63;;;16.00;18.91
54806;BME280;62866;55.776;37.496;2023-03-18T08:37:36;101723.00;;;14.73;20.46
54806;BME280;62866;55.776;37.496;2023-03-18T08:40:02;101711.31;;;14.16;20.32
54806;BME280;62866;55.776;37.496;2023-03-18T08:42:28;101719.31;;;14.74;20.39
54806;BME280;62866;55.776;37.496;2023-03-18T08:44:53;101709.09;;;15.41;20.09
54806;BME280;62866;55.776;37.496;2023-03-18T08:47:19;101710.41;;;15.62;20.42
54806;BME280;62866;55.776;37.496;2023-03-18T08:49:45;101703.50;;;15.51;20.19
54806;BME280;62866;55.776;37.496;2023-03-18T08:52:11;101709.03;;;16.05;20.02
54806;BME280;62866;55.776;37.496;2023-03-18T08:54:37;101707.03;;;16.29;19.01
54806;BME280;62866;55.776;37.496;2023-03-18T08:57:03;101708.38;;;16.25;19.70
54806;BME280;62866;55.776;37.496;2023-03-18T08:59:28;101707.59;;;15.86;19.00
54806;BME280;62866;55.776;37.496;2023-03-18T09:01:54;101699.56;;;15.31;19.73
54806;BME280;62866;55.776;37.496;2023-03-18T09:04:19;101705.38;;;14.63;19.67
54806;BME280;62866;55.776;37.496;2023-03-18T09:06:45;101703.97;;;14.34;19.72
54806;BME280;62866;55.776;37.496;2023-03-18T09:09:13;101702.75;;;14.04;20.03
54806;BME280;62866;55.776;37.496;2023-03-18T09:11:39;101695.75;;;13.70;20.10
54806;BME280;62866;55.776;37.496;2023-03-18T09:14:05;101692.47;;;14.08;20.06
54806;BME280;62866;55.776;37.496;2023-03-18T09:16:31;101697.06;;;14.32;18.98
54806;BME280;62866;55.776;37.496;2023-03-18T09:18:56;101689.75;;;13.92;19.39
54806;BME280;62866;55.776;37.496;2023-03-18T09:21:22;101693.75;;;13.38;19.60
54806;BME280;62866;55.776;37.496;2023-03-18T09:23:48;101693.28;;;12.73;20.56
54806;BME280;62866;55.776;37.496;2023-03-18T09:26:15;101682.00;;;12.08;20.73
54806;BME280;62866;55.776;37.496;2023-03-18T09:28:41;101690.88;;;10.60;21.38
54806;BME280;62866;55.776;37.496;2023-03-18T09:31:06;101678.81;;;8.98;22.25
54806;BME280;62866;55.776;37.496;2023-03-18T09:33:32;101682.25;;;8.15;22.87
54806;BME280;62866;55.776;37.496;2023-03-18T09:36:01;101681.09;;;7.32;23.49
54806;BME280;62866;55.776;37.496;2023-03-18T09:38:27;101684.66;;;6.75;24.02
54806;BME280;62866;55.776;37.496;2023-03-18T09:46:36;101684.09;;;5.40;25.46
54806;BME280;62866;55.776;37.496;2023-03-18T09:54:53;101666.75;;;4.97;25.77
54806;BME280;62866;55.776;37.496;2023-03-18T09:57:30;101666.31;;;4.91;26.06
54806;BME280;62866;55.776;37.496;2023-03-18T10:00:14;101672.78;;;4.74;26.26
54806;BME280;62866;55.776;37.496;2023-03-18T10:02:47;101670.00;;;4.63;26.67
54806;BME280;62866;55.776;37.496;2023-03-18T10:05:24;101657.19;;;4.57;26.31
54806;BME280;62866;55.776;37.496;2023-03-18T10:07:57;101656.00;;;4.61;26.51
54806;BME280;62866;55.776;37.496;2023-03-18T10:10:29;101635.44;;;4.52;26.61
54806;BME280;62866;55.776;37.496;2023-03-18T10:13:06;101657.94;;;4.72;27.41
54806;BME280;62866;55.776;37.496;2023-03-18T10:15:39;101650.22;;;4.81;26.33
54806;BME280;62866;55.776;37.496;2023-03-18T10:26:34;101643.00;;;4.96;26.76
54806;BME280;62866;55.776;37.496;2023-03-18T10:29:28;101640.56;;;4.93;25.61
54806;BME280;62866;55.776;37.496;2023-03-18T10:34:54;101637.91;;;4.93;26.65
54806;BME280;62866;55.776;37.496;2023-03-18T10:40:16;101630.69;;;4.95;25.45
54806;BME280;62866;55.776;37.496;2023-03-18T10:42:44;101627.31;;;4.80;25.38
54806;BME280;62866;55.776;37.496;2023-03-18T10:45:18;101623.06;;;4.78;25.65
54806;BME280;62866;55.776;37.496;2023-03-18T10:47:51;101620.66;;;4.75;26.17
54806;BME280;62866;55.776;37.496;2023-03-18T10:50:23;101623.41;;;4.73;25.96
54806;BME280;62866;55.776;37.496;2023-03-18T10:53:04;101625.09;;;4.74;26.01
54806;BME280;62866;55.776;37.496;2023-03-18T10:55:39;101625.09;;;4.74;25.76
54806;BME280;62866;55.776;37.496;2023-03-18T10:58:15;101625.28;;;4.71;26.69
54806;BME280;62866;55.776;37.496;2023-03-18T11:00:41;101606.97;;;4.68;26.49
54806;BME280;62866;55.776;37.496;2023-03-18T11:03:26;101619.78;;;4.74;26.57
54806;BME280;62866;55.776;37.496;2023-03-18T11:05:54;101606.84;;;4.70;26.94
54806;BME280;62866;55.776;37.496;2023-03-18T11:08:31;101602.94;;;4.75;27.34
54806;BME280;62866;55.776;37.496;2023-03-18T11:11:15;101583.00;;;4.70;27.27
54806;BME280;62866;55.776;37.496;2023-03-18T11:13:53;101609.16;;;5.00;27.55
54806;BME280;62866;55.776;37.496;2023-03-18T11:16:47;101606.41;;;5.01;25.55
54806;BME280;62866;55.776;37.496;2023-03-18T11:24:46;101600.78;;;5.06;25.22
54806;BME280;62866;55.776;37.496;2023-03-18T11:27:27;101607.38;;;5.00;25.47
54806;BME280;62866;55.776;37.496;2023-03-18T11:29:57;101611.47;;;5.04;26.06
54806;BME280;62866;55.776;37.496;2023-03-18T11:32:29;101601.72;;;5.05;25.96
54806;BME280;62866;55.776;37.496;2023-03-18T11:35:19;101594.97;;;5.01;25.47
54806;BME280;62866;55.776;37.496;2023-03-18T11:37:45;101594.13;;;5.00;25.56
54806;BME280;62866;55.776;37.496;2023-03-18T11:40:27;101605.56;;;5.01;26.77
54806;BME280;62866;55.776;37.496;2023-03-18T11:42:56;101604.72;;;5.00;25.83
54806;BME280;62866;55.776;37.496;2023-03-18T11:48:13;101592.66;;;4.83;26.69
54806;BME280;62866;55.776;37.496;2023-03-18T11:50:56;101597.94;;;4.96;26.94
54806;BME280;62866;55.776;37.496;2023-03-18T11:56:30;101597.06;;;5.08;26.96
54806;BME280;62866;55.776;37.496;2023-03-18T12:05:38;101588.28;;;5.08;27.04
54806;BME280;62866;55.776;37.496;2023-03-18T12:11:12;101596.41;;;5.17;27.27
54806;BME280;62866;55.776;37.496;2023-03-18T12:22:09;101575.41;;;5.27;27.83
54806;BME280;62866;55.776;37.496;2023-03-18T12:33:24;101575.16;;;5.30;27.27
54806;BME280;62866;55.776;37.496;2023-03-18T12:46:28;101553.19;;;5.28;26.83
54806;BME280;62866;55.776;37.496;2023-03-18T12:49:33;101543.78;;;5.24;27.15
54806;BME280;62866;55.776;37.496;2023-03-18T12:52:07;101541.63;;;5.29;27.72
54806;BME280;62866;55.776;37.496;2023-03-18T12:54:47;101533.25;;;5.35;26.27
54806;BME280;62866;55.776;37.496;2023-03-18T12:58:35;101536.72;;;5.83;26.37
54806;BME280;62866;55.776;37.496;2023-03-18T13:00:43;101526.09;;;6.18;26.57
54806;BME280;62866;55.776;37.496;2023-03-18T13:03:32;101514.78;;;6.27;26.36
54806;BME280;62866;55.776;37.496;2023-03-18T13:17:12;101517.81;;;5.64;27.04
54806;BME280;62866;55.776;37.496;2023-03-18T13:19:40;101527.19;;;5.57;27.33
54806;BME280;62866;55.776;37.496;2023-03-18T13:43:39;101501.97;;;5.27;28.56
54806;BME280;62866;55.776;37.496;2023-03-18T13:46:26;101503.50;;;5.19;28.69
54806;BME280;62866;55.776;37.496;2023-03-18T13:48:57;101498.06;;;5.20;28.55
54806;BME280;62866;55.776;37.496;2023-03-18T13:53:52;101493.31;;;5.13;28.64
54806;BME280;62866;55.776;37.496;2023-03-18T13:56:45;101493.22;;;5.14;28.97
54806;BME280;62866;55.776;37.496;2023-03-18T14:02:24;101492.66;;;5.22;28.99
54806;BME280;62866;55.776;37.496;2023-03-18T14:04:54;101478.91;;;5.17;29.45
54806;BME280;62866;55.776;37.496;2023-03-18T14:07:23;101487.25;;;5.00;29.53
54806;BME280;62866;55.776;37.496;2023-03-18T14:17:19;101471.97;;;4.67;29.49
54806;BME280;62866;55.776;37.496;2023-03-18T14:19:46;101472.81;;;4.67;29.86
54806;BME280;62866;55.776;37.496;2023-03-18T14:22:34;101469.91;;;4.70;29.60
54806;BME280;62866;55.776;37.496;2023-03-18T14:27:46;101454.72;;;4.48;29.59
54806;BME280;62866;55.776;37.496;2023-03-18T14:30:41;101472.81;;;4.54;30.03
54806;BME280;62866;55.776;37.496;2023-03-18T14:38:19;101465.63;;;4.44;30.43
54806;BME280;62866;55.776;37.496;2023-03-18T14:40:51;101462.38;;;4.28;30.33
54806;BME280;62866;55.776;37.496;2023-03-18T14:45:50;101464.06;;;4.03;30.35
54806;BME280;62866;55.776;37.496;2023-03-18T14:48:20;101455.19;;;3.92;30.87
54806;BME280;62866;55.776;37.496;2023-03-18T14:50:50;101461.22;;;3.81;31.27
54806;BME280;62866;55.776;37.496;2023-03-18T14:55:50;101453.69;;;3.75;31.33
54806;BME280;62866;55.776;37.496;2023-03-18T14:58:21;101456.88;;;3.67;31.65
54806;BME280;62866;55.776;37.496;2023-03-18T15:00:52;101453.16;;;3.57;31.67
54806;BME280;62866;55.776;37.496;2023-03-18T15:03:24;101453.09;;;3.44;31.84
54806;BME280;62866;55.776;37.496;2023-03-18T15:05:59;101459.34;;;3.43;32.73
54806;BME280;62866;55.776;37.496;2023-03-18T15:08:35;101459.13;;;3.34;32.56